Time;durP1;ratioP1;P1;durP2;ratioP2;P2;SDS_P1;SDS_P2;PMS_P1;PMS_P2;Temp;Humidity;BMP_temperature;BMP_pressure;BME280_temperature;BME280_humidity;BME280_pressure;Samples;Min_cycle;Max_cycle;Signal;HPM_P1;HPM_P2
2023/10/20 00:00:18;;;;;;;0.50;0.40;;;13.70;99.90;;;;;;5056048;28;20438;-80
2023/10/20 00:02:45;;;;;;;0.50;0.30;;;13.70;99.90;;;;;;5056187;28;20433;-81
2023/10/20 00:05:13;;;;;;;0.50;0.30;;;13.70;99.90;;;;;;5055671;28;20932;-82
2023/10/20 00:07:40;;;;;;;0.50;0.40;;;13.70;99.90;;;;;;5055768;28;20891;-81
2023/10/20 00:10:09;;;;;;;0.50;0.40;;;13.70;99.90;;;;;;5055774;28;20438;-81
2023/10/20 00:12:36;;;;;;;0.50;0.30;;;13.70;99.90;;;;;;5055955;28;20473;-81
2023/10/20 00:15:05;;;;;;;0.50;0.30;;;13.70;99.90;;;;;;5056726;28;20445;-82
2023/10/20 00:17:31;;;;;;;0.50;0.40;;;13.70;99.90;;;;;;5056296;28;20441;-82
2023/10/20 00:19:58;;;;;;;0.50;0.37;;;13.70;99.90;;;;;;5055535;28;20452;-81
2023/10/20 00:22:25;;;;;;;0.50;0.40;;;13.70;99.90;;;;;;5056845;28;20426;-80
2023/10/20 00:24:52;;;;;;;0.50;0.30;;;13.60;99.90;;;;;;5055897;28;20528;-82
2023/10/20 00:27:18;;;;;;;0.50;0.37;;;13.60;99.90;;;;;;5055266;28;20462;-81
2023/10/20 00:29:45;;;;;;;0.50;0.30;;;13.60;99.90;;;;;;5055461;28;20437;-80
2023/10/20 00:32:13;;;;;;;0.50;0.40;;;13.60;99.90;;;;;;5055711;28;20485;-81
2023/10/20 00:34:40;;;;;;;0.50;0.40;;;13.60;99.90;;;;;;5052090;28;20647;-81
2023/10/20 00:37:07;;;;;;;0.50;0.30;;;13.70;99.90;;;;;;5048019;28;20481;-82
2023/10/20 00:39:35;;;;;;;0.50;0.30;;;13.70;99.90;;;;;;5053842;28;20437;-81
2023/10/20 00:42:02;;;;;;;0.50;0.40;;;13.70;99.90;;;;;;5053968;28;20491;-82
2023/10/20 00:44:29;;;;;;;0.50;0.30;;;13.70;99.90;;;;;;5055009;28;20446;-82
2023/10/20 00:46:56;;;;;;;4.63;4.43;;;13.70;99.90;;;;;;5039493;28;20466;-81
2023/10/20 00:49:24;;;;;;;0.50;0.40;;;13.70;99.90;;;;;;5048271;28;20425;-82
2023/10/20 00:51:52;;;;;;;0.50;0.40;;;13.60;99.90;;;;;;5055237;28;20461;-82
2023/10/20 00:54:20;;;;;;;0.50;0.40;;;13.60;99.90;;;;;;5056419;28;20931;-83
2023/10/20 00:56:47;;;;;;;0.50;0.30;;;13.60;99.90;;;;;;5056521;28;20526;-82
2023/10/20 00:59:14;;;;;;;0.50;0.40;;;13.60;99.90;;;;;;5056397;28;20528;-82
2023/10/20 01:01:41;;;;;;;0.50;0.40;;;13.50;99.90;;;;;;5056687;28;20441;-82
2023/10/20 01:04:08;;;;;;;0.50;0.40;;;13.50;99.90;;;;;;5056668;28;20440;-83
2023/10/20 01:06:37;;;;;;;0.50;0.40;;;13.50;99.90;;;;;;5055983;28;20449;-81
2023/10/20 01:09:04;;;;;;;0.50;0.40;;;13.50;99.90;;;;;;5055400;28;20433;-83
2023/10/20 01:11:31;;;;;;;0.50;0.40;;;13.50;99.90;;;;;;5054960;28;20441;-81
2023/10/20 01:13:58;;;;;;;0.50;0.40;;;13.50;99.90;;;;;;5055021;28;20485;-82
2023/10/20 01:16:24;;;;;;;0.50;0.40;;;13.50;99.90;;;;;;5055325;28;20457;-81
2023/10/20 01:18:51;;;;;;;0.50;0.40;;;13.50;99.90;;;;;;5055464;28;21133;-82
2023/10/20 01:21:18;;;;;;;0.50;0.40;;;13.40;99.90;;;;;;5054612;28;20797;-81
2023/10/20 01:23:46;;;;;;;0.50;0.30;;;13.50;99.90;;;;;;5054792;28;20434;-83
2023/10/20 01:26:14;;;;;;;0.50;0.30;;;13.50;99.90;;;;;;5053850;28;20492;-83
2023/10/20 01:28:41;;;;;;;0.50;0.30;;;13.60;99.90;;;;;;5055235;28;20440;-83
2023/10/20 01:31:07;;;;;;;0.50;0.40;;;13.60;99.90;;;;;;5054323;28;20473;-81
2023/10/20 01:33:34;;;;;;;0.50;0.40;;;13.60;99.90;;;;;;5054582;28;20476;-81
2023/10/20 01:36:01;;;;;;;0.50;0.40;;;13.60;99.90;;;;;;5054465;28;20458;-80
2023/10/20 01:38:27;;;;;;;0.50;0.30;;;13.60;99.90;;;;;;5054069;28;20444;-82
2023/10/20 01:40:53;;;;;;;0.50;0.37;;;13.60;99.90;;;;;;5054281;28;21011;-83
2023/10/20 01:43:22;;;;;;;0.50;0.40;;;13.60;99.90;;;;;;5054369;28;20198;-81
2023/10/20 01:45:49;;;;;;;0.50;0.30;;;13.60;99.90;;;;;;5054703;28;20464;-80
2023/10/20 01:48:16;;;;;;;0.50;0.40;;;13.60;99.90;;;;;;5055309;28;20438;-83
2023/10/20 01:50:44;;;;;;;0.50;0.30;;;13.50;99.90;;;;;;5055693;28;20438;-81
2023/10/20 01:53:11;;;;;;;0.50;0.30;;;13.50;99.90;;;;;;5054408;28;20495;-81
2023/10/20 01:55:39;;;;;;;0.50;0.40;;;13.50;99.90;;;;;;5054981;28;20470;-82
2023/10/20 01:58:06;;;;;;;0.50;0.40;;;13.50;99.90;;;;;;5054971;28;20863;-81
2023/10/20 02:00:37;;;;;;;0.50;0.40;;;13.50;99.90;;;;;;5054333;28;20452;-83
2023/10/20 02:03:04;;;;;;;0.50;0.30;;;13.50;99.90;;;;;;5053931;28;20437;-81
2023/10/20 02:05:31;;;;;;;0.50;0.40;;;13.50;99.90;;;;;;5053098;28;20457;-82
2023/10/20 02:07:58;;;;;;;0.50;0.30;;;13.50;99.90;;;;;;5054101;28;20449;-81
2023/10/20 02:10:25;;;;;;;0.50;0.40;;;13.50;99.90;;;;;;5053737;28;20433;-82
2023/10/20 02:12:51;;;;;;;0.50;0.37;;;13.50;99.90;;;;;;5053894;28;20484;-82
2023/10/20 02:15:18;;;;;;;0.50;0.37;;;13.60;99.90;;;;;;5053760;28;20520;-81
2023/10/20 02:17:46;;;;;;;0.50;0.40;;;13.60;99.90;;;;;;5053266;28;20433;-81
2023/10/20 02:20:15;;;;;;;0.50;0.40;;;13.60;99.90;;;;;;5053756;28;20953;-83
2023/10/20 02:22:43;;;;;;;0.50;0.37;;;13.60;99.90;;;;;;5053787;28;20438;-81
2023/10/20 02:25:10;;;;;;;0.50;0.40;;;13.50;99.90;;;;;;5053376;28;20438;-79
2023/10/20 02:27:39;;;;;;;0.50;0.40;;;13.50;99.90;;;;;;5053658;28;20436;-82
2023/10/20 02:30:08;;;;;;;0.50;0.40;;;13.50;99.90;;;;;;5089801;22;20971;-82
2023/10/20 02:32:34;;;;;;;0.50;0.40;;;13.50;99.90;;;;;;5024784;28;20965;-83
2023/10/20 02:35:03;;;;;;;0.50;0.40;;;13.50;99.90;;;;;;5032366;28;20446;-83
2023/10/20 02:37:30;;;;;;;0.50;0.40;;;13.50;99.90;;;;;;5031798;28;20529;-82
2023/10/20 02:39:57;;;;;;;0.50;0.30;;;13.50;99.90;;;;;;5031941;28;20470;-83
2023/10/20 02:42:24;;;;;;;0.50;0.40;;;13.50;99.90;;;;;;5032163;28;20450;-82
2023/10/20 02:44:51;;;;;;;0.50;0.40;;;13.50;99.90;;;;;;5032490;28;20445;-83
2023/10/20 02:47:17;;;;;;;0.50;0.40;;;13.50;99.90;;;;;;5032020;28;20446;-82
2023/10/20 02:49:44;;;;;;;0.50;0.40;;;13.50;99.90;;;;;;5031912;28;20462;-83
2023/10/20 02:52:13;;;;;;;0.50;0.40;;;13.50;99.90;;;;;;5031795;28;20445;-80
2023/10/20 02:54:39;;;;;;;0.50;0.40;;;13.50;99.90;;;;;;5032163;28;20524;-81
2023/10/20 02:57:06;;;;;;;0.50;0.40;;;13.50;99.90;;;;;;5031954;28;20438;-81
2023/10/20 02:59:33;;;;;;;3.37;1.03;;;13.50;99.90;;;;;;5031678;28;20458;-80
2023/10/20 03:02:00;;;;;;;0.50;0.40;;;13.40;99.90;;;;;;5032416;28;20438;-81
2023/10/20 03:04:27;;;;;;;0.50;0.30;;;13.40;99.90;;;;;;5031843;28;20439;-81
2023/10/20 03:06:53;;;;;;;0.53;0.53;;;13.40;99.90;;;;;;5031807;28;20444;-82
2023/10/20 03:09:22;;;;;;;0.50;0.30;;;13.40;99.90;;;;;;5031594;28;20466;-81
2023/10/20 03:11:49;;;;;;;1.00;0.97;;;13.40;99.90;;;;;;5032029;28;20447;-81
2023/10/20 03:14:17;;;;;;;0.50;0.40;;;13.40;99.90;;;;;;5031927;28;20848;-80
2023/10/20 03:16:45;;;;;;;0.50;0.40;;;13.40;99.90;;;;;;5035699;28;20457;-81
2023/10/20 03:19:12;;;;;;;0.50;0.40;;;13.40;99.90;;;;;;5035897;28;20457;-81
2023/10/20 03:21:39;;;;;;;0.50;0.40;;;13.30;99.90;;;;;;5036901;28;20946;-82
2023/10/20 03:24:07;;;;;;;0.50;0.40;;;13.30;99.90;;;;;;5036073;28;20435;-82
2023/10/20 03:26:35;;;;;;;0.50;0.30;;;13.30;99.90;;;;;;5035665;28;20885;-81
2023/10/20 03:29:03;;;;;;;1.03;1.03;;;13.30;99.90;;;;;;5035630;28;20447;-81
2023/10/20 03:31:30;;;;;;;0.50;0.40;;;13.30;99.90;;;;;;5035612;28;20438;-81
2023/10/20 03:33:56;;;;;;;0.50;0.40;;;13.30;99.90;;;;;;5036185;28;20478;-82
2023/10/20 03:36:23;;;;;;;0.50;0.40;;;13.30;99.90;;;;;;5035652;28;20450;-81
2023/10/20 03:38:50;;;;;;;0.50;0.40;;;13.30;99.90;;;;;;5035926;28;20798;-81
2023/10/20 03:41:17;;;;;;;0.50;0.40;;;13.40;99.90;;;;;;5035102;28;20470;-81
2023/10/20 03:43:45;;;;;;;0.50;0.40;;;13.30;99.90;;;;;;5038092;28;20436;-81
2023/10/20 03:46:13;;;;;;;0.50;0.30;;;13.30;99.90;;;;;;5041982;28;20438;-82
2023/10/20 03:48:40;;;;;;;0.50;0.40;;;13.30;99.90;;;;;;5040123;28;20500;-80
2023/10/20 03:51:11;;;;;;;0.50;0.40;;;13.30;99.90;;;;;;5040047;28;20470;-82
2023/10/20 03:53:46;;;;;;;0.50;0.40;;;13.40;99.90;;;;;;5037274;28;20493;-82
2023/10/20 03:56:13;;;;;;;0.50;0.30;;;13.40;99.90;;;;;;5037282;28;20949;-82
2023/10/20 03:58:42;;;;;;;1.33;1.23;;;13.40;99.90;;;;;;5036547;28;20443;-82
2023/10/20 04:01:11;;;;;;;0.50;0.40;;;13.40;99.90;;;;;;5041801;28;20470;-82
2023/10/20 04:03:38;;;;;;;0.50;0.40;;;13.40;99.90;;;;;;5037463;28;23586;-82
2023/10/20 04:06:08;;;;;;;0.50;0.30;;;13.40;99.90;;;;;;5037001;28;20473;-82
2023/10/20 04:08:35;;;;;;;0.50;0.40;;;13.40;99.90;;;;;;5036291;28;20549;-83
2023/10/20 04:11:01;;;;;;;0.50;0.40;;;13.40;99.90;;;;;;5026621;28;21010;-82
2023/10/20 04:13:29;;;;;;;0.50;0.30;;;13.40;99.90;;;;;;5031401;28;20479;-83
2023/10/20 04:15:56;;;;;;;0.80;0.80;;;13.50;99.90;;;;;;5033227;28;20517;-83
2023/10/20 04:18:24;;;;;;;0.50;0.30;;;13.50;99.90;;;;;;5030182;28;20471;-83
2023/10/20 04:20:51;;;;;;;0.50;0.40;;;13.50;99.90;;;;;;5032193;28;20458;-83
2023/10/20 04:23:18;;;;;;;0.50;0.40;;;13.60;99.90;;;;;;5024947;28;20450;-84
2023/10/20 04:25:52;;;;;;;0.50;0.40;;;13.50;99.90;;;;;;5024890;28;20439;-83
2023/10/20 04:28:20;;;;;;;2.20;2.00;;;13.60;99.90;;;;;;5027615;28;20842;-83
2023/10/20 04:41:55;;;;;;;0.60;0.50;;;13.60;99.90;;;;;;5032022;28;20444;-82
2023/10/20 04:53:10;;;;;;;0.50;0.40;;;13.70;99.90;;;;;;5032861;28;20818;-81
2023/10/20 04:58:23;;;;;;;0.50;0.40;;;13.70;99.90;;;;;;5038863;28;20471;-82
2023/10/20 05:01:01;;;;;;;0.50;0.40;;;13.70;99.90;;;;;;5030891;28;20470;-81
2023/10/20 05:03:34;;;;;;;0.47;0.30;;;13.70;99.90;;;;;;5037142;28;20430;-81
2023/10/20 05:06:19;;;;;;;0.50;0.40;;;13.70;99.90;;;;;;5037850;28;20443;-81
2023/10/20 05:08:47;;;;;;;0.50;0.30;;;13.80;99.90;;;;;;5036974;28;20441;-82
2023/10/20 05:11:15;;;;;;;0.50;0.30;;;13.80;99.90;;;;;;5036931;28;20462;-82
2023/10/20 05:13:42;;;;;;;2.40;2.20;;;13.80;99.90;;;;;;5037148;28;21005;-81
2023/10/20 05:16:10;;;;;;;0.50;0.50;;;13.80;99.90;;;;;;5036351;28;20534;-82
2023/10/20 05:18:38;;;;;;;0.50;0.47;;;13.80;99.90;;;;;;5036301;28;20446;-82
2023/10/20 05:21:08;;;;;;;0.53;0.53;;;13.80;99.90;;;;;;5037421;28;20459;-82
2023/10/20 05:23:36;;;;;;;0.50;0.50;;;13.80;99.90;;;;;;5035031;28;20889;-81
2023/10/20 05:26:03;;;;;;;0.70;0.70;;;13.80;99.90;;;;;;5035316;28;20450;-81
2023/10/20 05:28:30;;;;;;;2.83;2.60;;;13.90;99.90;;;;;;5035783;28;20442;-83
2023/10/20 05:30:58;;;;;;;0.50;0.40;;;13.90;99.90;;;;;;5034872;28;20466;-82
2023/10/20 05:33:26;;;;;;;0.50;0.30;;;13.90;99.90;;;;;;5035438;28;20524;-83
2023/10/20 05:35:53;;;;;;;0.50;0.40;;;13.90;99.90;;;;;;5035584;28;20442;-83
2023/10/20 05:38:21;;;;;;;0.60;0.50;;;13.90;99.90;;;;;;5034989;28;20496;-80
2023/10/20 05:40:58;;;;;;;0.50;0.40;;;13.90;99.90;;;;;;5034537;28;20455;-83
2023/10/20 05:43:26;;;;;;;0.50;0.40;;;13.90;99.90;;;;;;5035749;28;20447;-80
2023/10/20 05:45:53;;;;;;;0.50;0.40;;;13.90;99.90;;;;;;5035050;28;20780;-83
2023/10/20 05:48:20;;;;;;;2.07;1.60;;;13.90;99.90;;;;;;5035132;28;20469;-83
2023/10/20 05:50:46;;;;;;;0.50;0.40;;;14.00;99.90;;;;;;5036315;28;20459;-83
2023/10/20 05:53:14;;;;;;;0.50;0.40;;;14.00;99.90;;;;;;5036182;28;20439;-83
2023/10/20 05:55:43;;;;;;;1.20;1.10;;;14.00;99.90;;;;;;5035767;28;20566;-83
2023/10/20 05:58:09;;;;;;;0.50;0.40;;;14.00;99.90;;;;;;5035771;28;20439;-82
2023/10/20 06:00:37;;;;;;;2.70;1.60;;;14.10;99.90;;;;;;5034046;28;20478;-82
2023/10/20 06:03:05;;;;;;;0.50;0.40;;;14.00;99.90;;;;;;5034602;28;20442;-83
2023/10/20 06:05:32;;;;;;;3.17;3.07;;;14.00;99.90;;;;;;5033379;28;20871;-81
2023/10/20 06:07:59;;;;;;;2.57;1.10;;;14.00;99.90;;;;;;5034227;28;20445;-81
2023/10/20 06:10:26;;;;;;;3.40;3.30;;;14.00;99.90;;;;;;5033557;28;20470;-80
2023/10/20 06:12:55;;;;;;;0.50;0.40;;;14.00;99.90;;;;;;5033073;28;20442;-81
2023/10/20 06:15:22;;;;;;;0.50;0.40;;;14.00;99.90;;;;;;5033676;28;20819;-81
2023/10/20 06:17:50;;;;;;;0.93;0.93;;;14.00;99.90;;;;;;5033875;28;20442;-81
2023/10/20 06:20:18;;;;;;;1.53;0.87;;;14.00;99.90;;;;;;5033718;28;20462;-81
2023/10/20 06:22:45;;;;;;;0.50;0.40;;;14.00;99.90;;;;;;5034553;28;20445;-80
2023/10/20 06:25:13;;;;;;;0.50;0.40;;;14.00;99.90;;;;;;5034262;28;20489;-82
2023/10/20 06:27:41;;;;;;;0.50;0.40;;;14.00;99.90;;;;;;5034390;28;20966;-82
2023/10/20 06:30:19;;;;;;;0.50;0.40;;;14.00;99.90;;;;;;5034641;28;20553;-82
2023/10/20 06:32:47;;;;;;;3.13;1.33;;;14.00;99.90;;;;;;5034579;28;20798;-81
2023/10/20 06:35:14;;;;;;;2.63;0.43;;;14.00;99.90;;;;;;5027716;28;20822;-82
2023/10/20 06:37:46;;;;;;;0.50;0.40;;;14.00;99.90;;;;;;5035158;28;20466;-84
2023/10/20 06:40:16;;;;;;;3.17;2.90;;;14.00;99.90;;;;;;5035545;28;20470;-82
2023/10/20 06:42:44;;;;;;;0.90;0.77;;;13.90;99.90;;;;;;5034428;28;20450;-83
2023/10/20 06:45:12;;;;;;;0.50;0.40;;;13.90;99.90;;;;;;5039647;28;20443;-83
2023/10/20 06:47:40;;;;;;;1.00;1.00;;;13.90;99.90;;;;;;5041449;28;20459;-82
2023/10/20 06:50:08;;;;;;;2.00;1.90;;;13.90;99.90;;;;;;5040628;28;20554;-82
2023/10/20 06:52:36;;;;;;;0.60;0.40;;;13.90;99.90;;;;;;5044737;28;20898;-82
2023/10/20 06:55:03;;;;;;;1.23;0.93;;;13.90;99.90;;;;;;5039288;28;20482;-84
2023/10/20 06:57:30;;;;;;;0.97;0.97;;;13.90;99.90;;;;;;5042544;28;20442;-85
2023/10/20 06:59:57;;;;;;;0.50;0.40;;;13.80;99.90;;;;;;5039558;28;20470;-83
2023/10/20 07:02:25;;;;;;;1.30;0.73;;;13.80;99.90;;;;;;5042069;28;20446;-83
2023/10/20 07:04:51;;;;;;;1.60;1.53;;;13.80;99.90;;;;;;5041550;28;20431;-82
2023/10/20 07:07:18;;;;;;;0.70;0.70;;;13.80;99.90;;;;;;5040647;28;20439;-84
2023/10/20 07:09:45;;;;;;;0.70;0.67;;;13.70;99.90;;;;;;5042872;28;20466;-85
2023/10/20 07:12:14;;;;;;;0.50;0.40;;;13.70;99.90;;;;;;5040036;28;20477;-86
2023/10/20 07:14:43;;;;;;;0.50;0.40;;;13.70;99.90;;;;;;5039592;28;20478;-86
2023/10/20 07:17:11;;;;;;;2.43;2.33;;;13.70;99.90;;;;;;5040253;28;20446;-85
2023/10/20 07:19:40;;;;;;;2.70;0.97;;;13.70;99.90;;;;;;5040105;28;20493;-86
2023/10/20 07:22:06;;;;;;;0.50;0.40;;;13.60;99.90;;;;;;5031702;28;20802;-86
2023/10/20 07:24:34;;;;;;;0.50;0.30;;;13.60;99.90;;;;;;5041436;28;20444;-83
2023/10/20 07:27:01;;;;;;;0.50;0.40;;;13.70;99.90;;;;;;5048811;28;20435;-86
2023/10/20 07:29:28;;;;;;;0.43;0.30;;;13.70;99.90;;;;;;5046692;28;20468;-85
2023/10/20 07:31:55;;;;;;;0.50;0.40;;;13.70;99.90;;;;;;5048384;28;20435;-83
2023/10/20 07:34:22;;;;;;;0.50;0.40;;;13.70;99.90;;;;;;5039488;28;20474;-85
2023/10/20 07:36:51;;;;;;;0.77;0.60;;;13.70;99.90;;;;;;5039356;28;20446;-86
2023/10/20 07:39:18;;;;;;;0.50;0.30;;;13.60;99.90;;;;;;5039801;28;20512;-84
2023/10/20 07:41:45;;;;;;;0.50;0.37;;;13.60;99.90;;;;;;5037413;28;20474;-85
2023/10/20 07:44:13;;;;;;;0.50;0.30;;;13.60;99.90;;;;;;5039133;28;20523;-85
2023/10/20 07:46:40;;;;;;;0.50;0.30;;;13.60;99.90;;;;;;5038080;28;20446;-85
2023/10/20 07:49:08;;;;;;;0.50;0.40;;;13.60;99.90;;;;;;5029851;28;20780;-85
2023/10/20 07:51:35;;;;;;;1.07;1.07;;;13.60;99.90;;;;;;5037122;28;20450;-85
2023/10/20 07:54:04;;;;;;;1.17;0.80;;;13.50;99.90;;;;;;5036417;28;20450;-83
2023/10/20 07:56:31;;;;;;;0.50;0.40;;;13.50;99.90;;;;;;5038400;28;20992;-85
2023/10/20 07:58:58;;;;;;;0.50;0.40;;;13.50;99.90;;;;;;5036236;28;20500;-84
2023/10/20 08:01:25;;;;;;;0.50;0.40;;;13.50;99.90;;;;;;5039332;28;20447;-86
2023/10/20 08:03:52;;;;;;;0.50;0.40;;;13.50;99.90;;;;;;5038800;28;20542;-85
2023/10/20 08:06:19;;;;;;;0.50;0.40;;;13.40;99.90;;;;;;5041143;28;20496;-85
2023/10/20 08:08:46;;;;;;;1.13;1.13;;;13.40;99.90;;;;;;5042307;28;20474;-86
2023/10/20 08:11:14;;;;;;;0.50;0.40;;;13.40;99.90;;;;;;5042403;28;20473;-84
2023/10/20 08:13:41;;;;;;;0.93;0.50;;;13.40;99.90;;;;;;5041800;28;20549;-84
2023/10/20 08:16:08;;;;;;;0.53;0.53;;;13.40;99.90;;;;;;5041449;28;20474;-84
2023/10/20 08:18:35;;;;;;;0.50;0.40;;;13.40;99.90;;;;;;5049997;28;20427;-87
2023/10/20 08:21:07;;;;;;;2.80;2.70;;;13.40;99.90;;;;;;5044021;28;20853;-85
2023/10/20 08:23:34;;;;;;;0.50;0.40;;;13.40;99.90;;;;;;5045642;28;20455;-86
2023/10/20 08:26:01;;;;;;;0.50;0.40;;;13.40;99.90;;;;;;5044900;28;20449;-86
2023/10/20 08:28:29;;;;;;;0.50;0.30;;;13.40;99.90;;;;;;5045701;28;20447;-85
2023/10/20 08:31:06;;;;;;;0.50;0.40;;;13.40;99.90;;;;;;5045333;28;20494;-86
2023/10/20 08:33:33;;;;;;;1.37;0.83;;;13.40;99.90;;;;;;5044263;28;20845;-84
2023/10/20 08:36:00;;;;;;;0.50;0.40;;;13.30;99.90;;;;;;5038844;28;20687;-85
2023/10/20 08:38:27;;;;;;;0.50;0.40;;;13.30;99.90;;;;;;5042014;28;20466;-86
2023/10/20 08:40:55;;;;;;;0.70;0.60;;;13.40;99.90;;;;;;5045297;28;20893;-85
2023/10/20 08:43:22;;;;;;;0.57;0.50;;;13.40;99.90;;;;;;5043840;28;20446;-85
2023/10/20 08:45:50;;;;;;;0.50;0.40;;;13.40;99.90;;;;;;5040707;28;20435;-85
2023/10/20 08:48:17;;;;;;;0.50;0.40;;;13.40;99.90;;;;;;5040990;28;20441;-86
2023/10/20 08:50:45;;;;;;;0.50;0.30;;;13.40;99.90;;;;;;5040049;28;20458;-85
2023/10/20 08:53:15;;;;;;;0.43;0.40;;;13.40;99.90;;;;;;5038515;28;20922;-85
2023/10/20 08:55:42;;;;;;;0.50;0.40;;;13.30;99.90;;;;;;5039775;28;20475;-85
2023/10/20 08:58:09;;;;;;;0.50;0.30;;;13.30;99.90;;;;;;5039464;28;20477;-83
2023/10/20 09:00:36;;;;;;;0.40;0.40;;;13.40;99.90;;;;;;5040003;28;20473;-86
2023/10/20 09:03:04;;;;;;;0.50;0.40;;;13.30;99.90;;;;;;5040013;28;20477;-83
2023/10/20 09:05:31;;;;;;;0.50;0.40;;;13.30;99.90;;;;;;5040961;28;20449;-84
2023/10/20 09:07:59;;;;;;;0.60;0.60;;;13.30;99.90;;;;;;5039948;28;20460;-85
2023/10/20 09:10:26;;;;;;;0.50;0.40;;;13.30;99.90;;;;;;5041606;28;20490;-86
2023/10/20 09:12:53;;;;;;;2.60;1.03;;;13.30;99.90;;;;;;5040265;28;20502;-85
2023/10/20 09:15:21;;;;;;;0.50;0.30;;;13.30;99.90;;;;;;5039937;28;20655;-85
2023/10/20 09:17:54;;;;;;;0.53;0.53;;;13.30;99.90;;;;;;5041286;28;20512;-85
2023/10/20 09:20:23;;;;;;;0.50;0.30;;;13.30;99.90;;;;;;5039943;28;20466;-85
2023/10/20 09:22:50;;;;;;;0.47;0.37;;;13.30;99.90;;;;;;5042143;28;20435;-85
2023/10/20 09:25:17;;;;;;;0.50;0.40;;;13.30;99.90;;;;;;5041686;28;20439;-85
2023/10/20 09:27:44;;;;;;;0.50;0.40;;;13.30;99.90;;;;;;5045074;28;20447;-85
2023/10/20 09:30:12;;;;;;;0.50;0.40;;;13.30;99.90;;;;;;5039660;28;20485;-86
2023/10/20 09:32:39;;;;;;;0.50;0.40;;;13.30;99.90;;;;;;5039364;28;20474;-87
2023/10/20 09:35:07;;;;;;;0.50;0.40;;;13.30;99.90;;;;;;5039787;28;20478;-82
2023/10/20 09:37:36;;;;;;;0.50;0.30;;;13.30;99.90;;;;;;5039089;28;20533;-86
2023/10/20 09:40:06;;;;;;;0.50;0.40;;;13.30;99.90;;;;;;5038949;28;20904;-86
2023/10/20 09:42:44;;;;;;;0.50;0.40;;;13.30;99.90;;;;;;5040693;28;20454;-85
2023/10/20 09:45:16;;;;;;;0.50;0.40;;;13.30;99.90;;;;;;5040697;28;20819;-84
2023/10/20 09:47:45;;;;;;;0.40;0.30;;;13.30;99.90;;;;;;5040303;28;20454;-85
2023/10/20 09:50:12;;;;;;;0.43;0.37;;;13.30;99.90;;;;;;5039586;28;20478;-85
2023/10/20 09:52:42;;;;;;;0.50;0.40;;;13.30;99.90;;;;;;5041681;28;20918;-85
2023/10/20 09:55:11;;;;;;;0.50;0.40;;;13.30;99.90;;;;;;5040273;28;20532;-83
2023/10/20 09:57:38;;;;;;;0.50;0.40;;;13.30;99.90;;;;;;5039221;28;20534;-84
2023/10/20 10:00:07;;;;;;;0.57;0.53;;;13.30;99.90;;;;;;5038784;28;20458;-84
2023/10/20 10:02:34;;;;;;;0.50;0.40;;;13.30;99.90;;;;;;5038046;28;20447;-84
2023/10/20 10:05:01;;;;;;;0.50;0.37;;;13.30;99.90;;;;;;5038463;28;20435;-83
2023/10/20 10:07:29;;;;;;;0.50;0.40;;;13.30;99.90;;;;;;5038738;28;20446;-84
2023/10/20 10:09:58;;;;;;;0.50;0.40;;;13.20;99.90;;;;;;5038123;28;20471;-84
2023/10/20 10:12:27;;;;;;;0.50;0.30;;;13.20;99.90;;;;;;5039356;28;20438;-85
2023/10/20 10:14:59;;;;;;;0.40;0.40;;;13.20;99.90;;;;;;5038641;28;20878;-84
2023/10/20 10:17:27;;;;;;;0.50;0.30;;;13.20;99.90;;;;;;5031235;28;20449;-84
2023/10/20 10:19:55;;;;;;;0.47;0.40;;;13.20;99.90;;;;;;5037965;28;20462;-84
2023/10/20 10:22:30;;;;;;;0.50;0.40;;;13.20;99.90;;;;;;5028073;28;20445;-85
2023/10/20 10:25:00;;;;;;;0.50;0.40;;;13.20;99.90;;;;;;5027023;28;20523;-82
2023/10/20 10:27:29;;;;;;;0.50;0.40;;;13.20;99.90;;;;;;5027608;28;20461;-82
2023/10/20 10:29:59;;;;;;;1.23;1.03;;;13.20;99.90;;;;;;5032913;28;20472;-83
2023/10/20 10:32:27;;;;;;;0.50;0.50;;;13.20;99.90;;;;;;5029493;28;20442;-82
2023/10/20 10:34:55;;;;;;;0.50;0.40;;;13.10;99.90;;;;;;5038495;28;20814;-83
2023/10/20 10:37:30;;;;;;;0.50;0.33;;;13.10;99.90;;;;;;5037023;28;20446;-83
2023/10/20 10:40:08;;;;;;;0.50;0.40;;;13.10;99.90;;;;;;5036938;28;20481;-83
2023/10/20 10:42:42;;;;;;;0.50;0.40;;;13.10;99.90;;;;;;5031840;28;20478;-83
2023/10/20 10:45:22;;;;;;;0.43;0.40;;;13.10;99.90;;;;;;5037646;28;20461;-83
2023/10/20 10:47:49;;;;;;;0.50;0.30;;;13.10;99.90;;;;;;5036614;28;20474;-83
2023/10/20 10:50:16;;;;;;;1.70;0.60;;;13.20;99.90;;;;;;5036052;28;20468;-83
2023/10/20 10:52:43;;;;;;;0.60;0.60;;;13.20;99.90;;;;;;5036706;28;20438;-83
2023/10/20 10:55:13;;;;;;;0.50;0.40;;;13.20;99.90;;;;;;5035916;28;20922;-83
2023/10/20 10:57:40;;;;;;;0.50;0.33;;;13.20;99.90;;;;;;5037096;28;20481;-83
2023/10/20 11:00:08;;;;;;;0.50;0.37;;;13.20;99.90;;;;;;5036155;28;20462;-82
2023/10/20 11:02:35;;;;;;;0.50;0.33;;;13.20;99.90;;;;;;5037480;28;20930;-83
2023/10/20 11:05:03;;;;;;;0.50;0.30;;;13.20;99.90;;;;;;5035984;28;20521;-83
2023/10/20 11:07:30;;;;;;;1.03;0.93;;;13.20;99.90;;;;;;5036367;28;20504;-82
2023/10/20 11:09:57;;;;;;;0.50;0.40;;;13.20;99.90;;;;;;5036800;28;20549;-83
2023/10/20 11:12:25;;;;;;;0.50;0.50;;;13.20;99.90;;;;;;5036930;28;20438;-82
2023/10/20 11:14:56;;;;;;;0.47;0.30;;;13.10;99.90;;;;;;5036362;28;20756;-82
2023/10/20 11:17:23;;;;;;;0.50;0.40;;;13.10;99.90;;;;;;5035755;28;20513;-82
2023/10/20 11:19:50;;;;;;;2.37;2.17;;;13.20;99.90;;;;;;5036389;28;20970;-83
2023/10/20 11:22:17;;;;;;;0.40;0.30;;;13.20;99.90;;;;;;5037284;28;20450;-83
2023/10/20 11:24:52;;;;;;;0.40;0.30;;;13.20;99.90;;;;;;5036645;28;20469;-83
2023/10/20 11:27:19;;;;;;;0.50;0.50;;;13.10;99.90;;;;;;5039232;28;20437;-86
2023/10/20 11:29:49;;;;;;;0.50;0.40;;;13.10;99.90;;;;;;5039071;28;20454;-85
2023/10/20 11:32:18;;;;;;;1.03;0.87;;;13.10;99.90;;;;;;5036558;28;20450;-84
2023/10/20 11:34:45;;;;;;;0.50;0.40;;;13.10;99.90;;;;;;5037159;28;20500;-85
2023/10/20 11:37:13;;;;;;;0.50;0.40;;;13.10;99.90;;;;;;5042382;28;20521;-85
2023/10/20 11:39:40;;;;;;;0.50;0.40;;;13.10;99.90;;;;;;5042992;28;20476;-86
2023/10/20 11:42:07;;;;;;;1.17;1.07;;;13.10;99.90;;;;;;5045754;28;20522;-85
2023/10/20 11:44:34;;;;;;;2.03;1.77;;;13.20;99.90;;;;;;5041499;28;20471;-85
2023/10/20 11:47:02;;;;;;;0.50;0.40;;;13.10;99.90;;;;;;5041828;28;20439;-84
2023/10/20 11:49:29;;;;;;;0.90;0.80;;;13.10;99.90;;;;;;5035705;28;20462;-84
2023/10/20 11:51:56;;;;;;;0.63;0.63;;;13.10;99.90;;;;;;5042656;28;20438;-84
2023/10/20 11:54:23;;;;;;;0.70;0.70;;;13.10;99.90;;;;;;5042248;28;20438;-85
2023/10/20 11:56:50;;;;;;;0.90;0.60;;;13.00;99.90;;;;;;5045017;28;20470;-83
2023/10/20 11:59:16;;;;;;;0.70;0.70;;;13.10;99.90;;;;;;5042412;28;20506;-84
2023/10/20 12:01:44;;;;;;;1.37;1.27;;;13.10;99.90;;;;;;5042718;28;20465;-82
2023/10/20 12:04:12;;;;;;;0.50;0.40;;;13.10;99.90;;;;;;5044770;28;20787;-83
2023/10/20 12:06:39;;;;;;;0.90;0.90;;;13.00;99.90;;;;;;5044546;28;20534;-82
2023/10/20 12:09:08;;;;;;;0.60;0.60;;;12.90;99.90;;;;;;5044000;28;20898;-84
2023/10/20 12:11:36;;;;;;;0.60;0.50;;;12.80;99.90;;;;;;5043309;28;20521;-85
2023/10/20 12:14:03;;;;;;;1.43;1.07;;;12.70;99.90;;;;;;5042930;28;20438;-85
2023/10/20 12:16:30;;;;;;;0.93;0.93;;;12.70;99.90;;;;;;5042310;28;20558;-85
2023/10/20 12:19:01;;;;;;;0.50;0.40;;;12.70;99.90;;;;;;5042404;28;20454;-83
2023/10/20 12:21:29;;;;;;;0.60;0.60;;;12.70;99.90;;;;;;5038981;28;20453;-86
2023/10/20 12:23:56;;;;;;;0.50;0.40;;;12.70;99.90;;;;;;5038525;28;20934;-85
2023/10/20 12:26:23;;;;;;;0.50;0.40;;;12.70;99.90;;;;;;5039364;28;20435;-85
2023/10/20 12:28:50;;;;;;;0.50;0.40;;;12.70;99.90;;;;;;5041196;28;20450;-84
2023/10/20 12:31:17;;;;;;;1.23;1.13;;;12.70;99.90;;;;;;5040624;28;20506;-84
2023/10/20 12:33:45;;;;;;;0.77;0.77;;;12.70;99.90;;;;;;5044215;28;21012;-87
2023/10/20 12:36:13;;;;;;;0.50;0.47;;;12.70;99.90;;;;;;5043302;28;20512;-86
2023/10/20 12:38:43;;;;;;;0.50;0.40;;;12.70;99.90;;;;;;5044223;28;20522;-85
2023/10/20 12:41:10;;;;;;;0.60;0.60;;;12.70;99.90;;;;;;5042101;28;20459;-86
2023/10/20 12:43:37;;;;;;;0.70;0.70;;;12.70;99.90;;;;;;5041591;28;20439;-86
2023/10/20 12:46:04;;;;;;;1.80;1.70;;;12.70;99.90;;;;;;5044010;28;20439;-86
2023/10/20 12:48:31;;;;;;;0.50;0.40;;;12.70;99.90;;;;;;5041295;28;20449;-85
2023/10/20 12:50:58;;;;;;;0.43;0.40;;;12.70;99.90;;;;;;5043514;28;20467;-85
2023/10/20 12:53:25;;;;;;;0.50;0.40;;;12.70;99.90;;;;;;5045247;28;20486;-86
2023/10/20 12:55:54;;;;;;;0.50;0.30;;;12.70;99.90;;;;;;5042755;28;20467;-86
2023/10/20 12:58:21;;;;;;;0.50;0.40;;;12.70;99.90;;;;;;5043537;28;20450;-86
2023/10/20 13:00:48;;;;;;;1.43;1.13;;;12.70;99.90;;;;;;5042263;28;20807;-86
2023/10/20 13:03:15;;;;;;;0.50;0.30;;;12.70;99.90;;;;;;5040850;28;20902;-86
2023/10/20 13:05:41;;;;;;;0.50;0.40;;;12.70;99.90;;;;;;5041899;28;20941;-87
2023/10/20 13:08:09;;;;;;;0.50;0.30;;;12.70;99.90;;;;;;5042233;28;20945;-86
2023/10/20 13:10:36;;;;;;;0.50;0.30;;;12.70;99.90;;;;;;5040815;28;20459;-88
2023/10/20 13:13:04;;;;;;;0.50;0.40;;;12.70;99.90;;;;;;5042234;28;20442;-85